createdAt,value
2023-11-02T00:02:59.404Z,12.22
2023-11-02T00:08:31.533Z,12.15
2023-11-02T00:14:07.180Z,11.99
2023-11-02T00:19:39.071Z,11.71
2023-11-02T00:25:10.415Z,11.65
2023-11-02T00:30:42.256Z,11.73
2023-11-02T00:36:14.108Z,11.67
2023-11-02T00:41:45.864Z,11.65
2023-11-02T00:47:17.567Z,11.61
2023-11-02T00:52:49.174Z,11.45
2023-11-02T00:58:20.702Z,11.58
2023-11-02T01:03:52.498Z,11.51
2023-11-02T01:09:24.537Z,11.7
2023-11-02T01:15:00.342Z,11.29
2023-11-02T01:20:32.028Z,11.49
2023-11-02T01:26:04.025Z,11.44
2023-11-02T01:31:35.484Z,11.35
2023-11-02T01:37:07.551Z,11.11
2023-11-02T01:42:38.888Z,11.2
2023-11-02T01:48:10.780Z,11.29
2023-11-02T01:53:49.847Z,11.3
2023-11-02T01:59:21.048Z,11.27
2023-11-02T02:04:53.129Z,11.23
2023-11-02T02:10:29.674Z,11.24
2023-11-02T02:16:00.642Z,11.24
2023-11-02T02:21:32.651Z,11.34
2023-11-02T02:27:04.118Z,11.2
2023-11-02T02:32:35.800Z,11.27
2023-11-02T02:38:07.637Z,11.36
2023-11-02T02:43:39.384Z,11.17
2023-11-02T02:49:11.355Z,11.22
2023-11-02T02:54:42.722Z,11.27
2023-11-02T03:00:14.770Z,11.23
2023-11-02T03:05:46.163Z,11.27
2023-11-02T03:11:21.307Z,11.37
2023-11-02T03:17:01.886Z,11.11
2023-11-02T03:22:27.669Z,11.14
2023-11-02T03:27:59.706Z,11.19
2023-11-02T03:33:31.441Z,11.14
2023-11-02T03:39:04.016Z,11.21
2023-11-02T03:44:34.556Z,11.26
2023-11-02T03:50:06.549Z,11.27
2023-11-02T03:55:38.268Z,11.16
2023-11-02T04:01:09.772Z,10.97
2023-11-02T04:06:41.674Z,10.81
2023-11-02T04:12:13.538Z,10.91
2023-11-02T04:17:49.527Z,10.73
2023-11-02T04:23:21.032Z,10.77
2023-11-02T04:28:52.807Z,10.43
2023-11-02T04:34:24.884Z,10.62
2023-11-02T04:39:56.222Z,10.73
2023-11-02T04:45:28.829Z,10.82
2023-11-02T04:50:59.710Z,10.84
2023-11-02T04:56:31.741Z,10.8
2023-11-02T05:02:03.145Z,10.85
2023-11-02T05:07:34.867Z,10.52
2023-11-02T05:13:07.169Z,10.85
2023-11-02T05:18:44.958Z,10.83
2023-11-02T05:24:16.838Z,10.94
2023-11-02T05:29:48.603Z,11.08
2023-11-02T05:35:20.315Z,11.05
2023-11-02T05:40:52.701Z,11.02
2023-11-02T05:46:23.624Z,10.91
2023-11-02T05:51:55.075Z,11.03
2023-11-02T05:57:27.276Z,11.14
2023-11-02T06:02:58.911Z,11.11
2023-11-02T06:08:30.420Z,11.33
2023-11-02T06:14:07.280Z,11.25
2023-11-02T06:19:38.066Z,11.01
2023-11-02T06:25:09.767Z,11.46
2023-11-02T06:30:41.480Z,11.62
2023-11-02T06:36:13.382Z,11.9
2023-11-02T06:41:44.915Z,11.88
2023-11-02T06:47:16.664Z,11.96
2023-11-02T06:52:48.999Z,12.1
2023-11-02T06:58:20.115Z,11.9
2023-11-02T07:03:52.337Z,11.62
2023-11-02T07:09:23.596Z,11.36
2023-11-02T07:14:55.410Z,11.13
2023-11-02T07:20:31.621Z,11.08
2023-11-02T07:26:03.114Z,10.89
2023-11-02T07:31:34.875Z,11.09
2023-11-02T07:37:06.825Z,10.95
2023-11-02T07:42:38.301Z,10.86
2023-11-02T07:48:10.476Z,10.97
2023-11-02T07:53:41.741Z,10.66
2023-11-02T07:59:13.653Z,10.61
2023-11-02T08:04:45.574Z,10.65
2023-11-02T08:10:16.903Z,10.79
2023-11-02T08:15:49.515Z,10.67
2023-11-02T08:21:25.086Z,10.92
2023-11-02T08:26:56.965Z,10.96
2023-11-02T08:32:28.425Z,11.14
2023-11-02T08:38:00.820Z,11.24
2023-11-02T08:43:31.658Z,11.23
2023-11-02T08:49:03.521Z,10.98
2023-11-02T08:54:35.137Z,11.08
2023-11-02T09:00:06.893Z,11.06
2023-11-02T09:05:38.608Z,10.93
2023-11-02T09:11:10.571Z,11.03
2023-11-02T09:16:42.312Z,11.36
2023-11-02T09:22:20.292Z,11.25
2023-11-02T09:27:52.030Z,11.17
2023-11-02T09:33:23.601Z,11.16
2023-11-02T09:38:55.597Z,11.25
2023-11-02T09:44:27.806Z,11.19
2023-11-02T09:49:58.919Z,11.44
2023-11-02T09:55:31.103Z,11.44
2023-11-02T10:01:02.497Z,11.45
2023-11-02T10:06:34.095Z,11.38
2023-11-02T10:12:05.601Z,11.54
2023-11-02T10:17:37.408Z,11.35
2023-11-02T10:23:13.518Z,11.55
2023-11-02T10:28:46.039Z,11.59
2023-11-02T10:34:16.975Z,11.67
2023-11-02T10:39:48.691Z,11.89
2023-11-02T10:45:20.638Z,11.81
2023-11-02T10:50:52.088Z,11.83
2023-11-02T10:56:24.040Z,11.93
2023-11-02T11:01:55.546Z,11.97
2023-11-02T11:07:27.271Z,11.94
2023-11-02T11:12:59.005Z,11.89
2023-11-02T11:18:30.806Z,11.76
2023-11-02T11:24:06.839Z,11.87
2023-11-02T11:29:38.514Z,11.96
2023-11-02T11:35:10.337Z,11.84
2023-11-02T11:40:43.720Z,11.77
2023-11-02T11:46:13.685Z,11.9
2023-11-02T11:51:45.467Z,11.76
2023-11-02T11:57:17.260Z,11.89
2023-11-02T12:02:49.009Z,11.93
2023-11-02T12:08:20.615Z,11.98
2023-11-02T12:13:52.344Z,11.87
2023-11-02T12:19:24.075Z,11.77
2023-11-02T12:25:00.167Z,11.85
2023-11-02T12:30:32.038Z,11.81
2023-11-02T12:36:03.591Z,11.82
2023-11-02T12:41:35.511Z,11.72
2023-11-02T12:47:07.032Z,11.69
2023-11-02T12:52:38.861Z,11.69
2023-11-02T12:58:10.477Z,11.85
2023-11-02T13:03:42.264Z,11.6
2023-11-02T13:09:14.039Z,11.72
2023-11-02T13:14:45.646Z,11.7
2023-11-02T13:20:17.404Z,11.92
2023-11-02T13:25:53.495Z,11.9
2023-11-02T13:31:25.228Z,11.99
2023-11-02T13:36:57.096Z,12.1
2023-11-02T13:42:28.738Z,12.12
2023-11-02T13:48:00.446Z,12.1
2023-11-02T13:53:32.106Z,12.22
2023-11-02T13:59:03.867Z,12.06
2023-11-02T14:04:35.755Z,12.26
2023-11-02T14:10:07.567Z,12.24
2023-11-02T14:15:39.105Z,12.29
2023-11-02T14:21:10.759Z,12.26
2023-11-02T14:26:47.519Z,12.2
2023-11-02T14:32:18.559Z,12.09
2023-11-02T14:37:50.672Z,12.15
2023-11-02T14:43:22.366Z,12.01
2023-11-02T14:48:53.733Z,11.94
2023-11-02T14:54:25.509Z,11.9
2023-11-02T14:59:57.143Z,11.89
2023-11-02T15:05:29.427Z,11.84
2023-11-02T15:11:00.602Z,11.72
2023-11-02T15:16:32.346Z,11.98
2023-11-02T15:22:04.348Z,12.02
2023-11-02T15:27:42.229Z,12.15
2023-11-02T15:33:14.154Z,12.14
2023-11-02T15:38:45.594Z,12.17
2023-11-02T15:44:17.320Z,12.46
2023-11-02T15:49:49.100Z,12.42
2023-11-02T15:55:20.786Z,12.11
2023-11-02T16:00:52.506Z,11.85
2023-11-02T16:06:24.300Z,12.02
2023-11-02T16:11:55.957Z,12.12
2023-11-02T16:17:27.707Z,12.27
2023-11-02T16:22:59.401Z,12.22
2023-11-02T16:28:35.487Z,12.25
2023-11-02T16:34:07.288Z,12.1
2023-11-02T16:39:39.367Z,12.08
2023-11-02T16:45:10.616Z,12.08
2023-11-02T16:50:42.376Z,11.68
2023-11-02T16:56:14.390Z,11.74
2023-11-02T17:01:46.542Z,11.7
2023-11-02T17:07:17.630Z,11.76
2023-11-02T17:12:49.352Z,11.57
2023-11-02T17:18:21.387Z,11.6
2023-11-02T17:23:53.065Z,12.01
2023-11-02T17:29:29.207Z,11.79
2023-11-02T17:35:00.597Z,11.78
2023-11-02T17:40:32.290Z,11.96
2023-11-02T17:46:04.066Z,11.88
2023-11-02T17:51:36.079Z,11.77
2023-11-02T17:57:07.515Z,11.74
2023-11-02T18:02:39.214Z,11.75
2023-11-02T18:08:10.958Z,11.77
2023-11-02T18:13:42.667Z,11.89
2023-11-02T18:19:14.494Z,11.89
2023-11-02T18:24:46.134Z,11.84
2023-11-02T18:30:22.213Z,11.96
2023-11-02T18:35:53.945Z,12.21
2023-11-02T18:41:25.634Z,11.99
2023-11-02T18:46:57.364Z,12.16
2023-11-02T18:52:29.242Z,12.31
2023-11-02T18:58:01.176Z,11.95
2023-11-02T19:03:32.580Z,11.91
2023-11-02T19:09:04.266Z,11.84
2023-11-02T19:14:36.011Z,12.0
2023-11-02T19:20:07.737Z,11.74
2023-11-02T19:25:40.158Z,11.69
2023-11-02T19:31:17.545Z,11.64
2023-11-02T19:36:49.631Z,11.79
2023-11-02T19:42:21.316Z,11.81
2023-11-02T19:47:53.053Z,11.95
2023-11-02T19:53:24.462Z,11.72
2023-11-02T19:58:56.877Z,11.57
2023-11-02T20:04:27.968Z,11.42
2023-11-02T20:09:59.701Z,11.21
2023-11-02T20:15:31.380Z,11.18
2023-11-02T20:21:03.050Z,11.16
2023-11-02T20:26:35.086Z,11.14
2023-11-02T20:32:11.528Z,10.9
2023-11-02T20:37:42.608Z,11.04
2023-11-02T20:43:14.376Z,10.83
2023-11-02T20:48:46.063Z,10.84
2023-11-02T20:54:18.091Z,10.9
2023-11-02T20:59:49.516Z,10.98
2023-11-02T21:05:21.206Z,10.72
2023-11-02T21:10:52.937Z,10.92
2023-11-02T21:16:25.337Z,10.49
2023-11-02T21:21:56.353Z,10.33
2023-11-02T21:27:28.124Z,10.18
2023-11-02T21:33:04.287Z,10.18
2023-11-02T21:38:35.979Z,9.9
2023-11-02T21:44:07.705Z,10.1
2023-11-02T21:49:39.426Z,10.27
2023-11-02T21:55:11.766Z,10.25
2023-11-02T22:00:43.326Z,10.17
2023-11-02T22:06:14.608Z,10.15
2023-11-02T22:11:46.677Z,9.9
2023-11-02T22:17:18.393Z,9.74
2023-11-02T22:22:49.757Z,9.51
2023-11-02T22:28:21.463Z,9.45
2023-11-02T22:33:58.000Z,9.36
2023-11-02T22:39:29.693Z,9.46
2023-11-02T22:45:02.667Z,9.33
2023-11-02T22:50:32.776Z,9.35
2023-11-02T22:56:04.477Z,9.15
2023-11-02T23:01:36.218Z,9.26
2023-11-02T23:07:08.121Z,9.18
2023-11-02T23:12:39.850Z,9.15
2023-11-02T23:18:11.795Z,9.03
2023-11-02T23:23:43.359Z,8.98
2023-11-02T23:29:14.952Z,8.98
2023-11-02T23:34:51.023Z,9.11
2023-11-02T23:40:23.011Z,9.08
2023-11-02T23:45:54.402Z,9.22
2023-11-02T23:51:26.280Z,9.36
2023-11-02T23:56:57.853Z,9.52
